Time;durP1;ratioP1;P1;durP2;ratioP2;P2;SDS_P1;SDS_P2;PMS_P1;PMS_P2;Temp;Humidity;BMP_temperature;BMP_pressure;BME280_temperature;BME280_humidity;BME280_pressure;Samples;Min_cycle;Max_cycle;Signal;HPM_P1;HPM_P2
2021/08/26 00:06:44;;;;;;;10.07;4.70;;;;;;;;;;5125752;27;20063;-71
2021/08/26 00:09:09;;;;;;;9.20;5.10;;;;;;;;;;5133011;22;20039;-64
2021/08/26 00:11:35;;;;;;;10.07;5.40;;;;;;;;;;5126505;27;20714;-63
2021/08/26 00:14:01;;;;;;;9.95;5.78;;;;;;;;;;5132553;27;20037;-64
2021/08/26 00:16:26;;;;;;;9.45;5.78;;;;;;;;;;5134458;27;20027;-63
2021/08/26 00:18:52;;;;;;;8.68;5.40;;;;;;;;;;5134377;27;20038;-63
2021/08/26 00:21:18;;;;;;;11.57;7.38;;;;;;;;;;5134406;27;20015;-63
2021/08/26 00:23:43;;;;;;;16.80;7.70;;;;;;;;;;5116757;27;20248;-64
2021/08/26 00:26:08;;;;;;;13.45;7.93;;;;;;;;;;5113760;28;20069;-63
2021/08/26 00:28:34;;;;;;;18.48;9.40;;;;;;;;;;5113822;28;20031;-65
2021/08/26 00:30:59;;;;;;;20.17;10.27;;;;;;;;;;5113766;28;20019;-63
2021/08/26 00:33:24;;;;;;;16.77;11.07;;;;;;;;;;5127648;27;20299;-64
2021/08/26 00:35:50;;;;;;;16.77;10.70;;;;;;;;;;5118032;27;20280;-63
2021/08/26 00:38:15;;;;;;;18.38;10.40;;;;;;;;;;5134148;27;20626;-64
2021/08/26 00:40:41;;;;;;;21.17;11.73;;;;;;;;;;5133012;27;20044;-64
2021/08/26 00:43:06;;;;;;;20.47;11.90;;;;;;;;;;5121721;27;20270;-65
2021/08/26 00:45:33;;;;;;;27.02;12.05;;;;;;;;;;5113788;28;20352;-64
2021/08/26 00:47:59;;;;;;;18.02;10.52;;;;;;;;;;5113035;28;20020;-64
2021/08/26 00:50:24;;;;;;;19.77;10.93;;;;;;;;;;5113533;28;20072;-64
2021/08/26 00:52:49;;;;;;;20.70;12.18;;;;;;;;;;5121887;27;20106;-64
2021/08/26 00:55:14;;;;;;;22.98;12.38;;;;;;;;;;5123400;27;20080;-65
2021/08/26 00:57:40;;;;;;;19.48;11.93;;;;;;;;;;5130208;27;20027;-63
2021/08/26 01:00:06;;;;;;;22.90;13.48;;;;;;;;;;5124426;27;20030;-65
2021/08/26 01:02:35;;;;;;;25.67;13.25;;;;;;;;;;5126870;27;20011;-65
2021/08/26 01:05:03;;;;;;;17.40;11.48;;;;;;;;;;5112602;28;20521;-64
2021/08/26 01:07:30;;;;;;;23.02;11.93;;;;;;;;;;5113010;28;20080;-65
2021/08/26 01:10:04;;;;;;;19.80;11.80;;;;;;;;;;5114226;27;20501;-65
2021/08/26 01:12:30;;;;;;;21.95;12.13;;;;;;;;;;5113758;27;20527;-65
2021/08/26 01:14:56;;;;;;;22.65;11.80;;;;;;;;;;5112913;28;20073;-67
2021/08/26 01:17:24;;;;;;;22.77;11.90;;;;;;;;;;5112971;28;20034;-65
2021/08/26 01:19:50;;;;;;;30.35;14.43;;;;;;;;;;5121785;27;20106;-65
2021/08/26 01:22:17;;;;;;;26.38;15.55;;;;;;;;;;5133112;27;20111;-65
2021/08/26 01:24:43;;;;;;;27.10;15.57;;;;;;;;;;5133277;27;20030;-65
2021/08/26 01:27:10;;;;;;;26.50;15.63;;;;;;;;;;5133182;27;20019;-65
2021/08/26 01:29:35;;;;;;;34.58;17.15;;;;;;;;;;5125601;27;20031;-65
2021/08/26 01:32:00;;;;;;;31.70;17.52;;;;;;;;;;5112266;28;20023;-65
2021/08/26 01:34:26;;;;;;;35.78;19.88;;;;;;;;;;5112440;28;20019;-66
2021/08/26 01:36:51;;;;;;;32.95;18.85;;;;;;;;;;5112180;28;20011;-65
2021/08/26 01:39:16;;;;;;;30.93;17.80;;;;;;;;;;5116565;27;20031;-65
2021/08/26 01:41:48;;;;;;;35.40;18.75;;;;;;;;;;5132330;27;20697;-66
2021/08/26 01:44:14;;;;;;;30.92;18.70;;;;;;;;;;5132791;27;20560;-66
2021/08/26 01:46:39;;;;;;;36.83;19.90;;;;;;;;;;5119713;27;20055;-66
2021/08/26 01:49:04;;;;;;;33.80;18.70;;;;;;;;;;5120667;27;20586;-65
2021/08/26 01:51:30;;;;;;;41.63;21.33;;;;;;;;;;5132792;27;20050;-66
2021/08/26 01:53:55;;;;;;;40.27;21.80;;;;;;;;;;5132433;27;20316;-65
2021/08/26 01:56:20;;;;;;;42.60;20.83;;;;;;;;;;5132432;27;20268;-66
2021/08/26 01:58:45;;;;;;;39.20;23.50;;;;;;;;;;5132514;27;20497;-65
2021/08/26 02:01:10;;;;;;;39.10;21.10;;;;;;;;;;5116176;27;20026;-65
2021/08/26 02:03:37;;;;;;;37.88;20.80;;;;;;;;;;5117784;27;20268;-65
2021/08/26 02:06:02;;;;;;;38.90;20.58;;;;;;;;;;5120979;27;20038;-65
2021/08/26 02:08:28;;;;;;;35.75;21.02;;;;;;;;;;5132298;27;20038;-65
2021/08/26 02:10:53;;;;;;;33.37;18.77;;;;;;;;;;5115111;27;20389;-66
2021/08/26 02:13:18;;;;;;;38.23;18.30;;;;;;;;;;5111507;28;20280;-65
2021/08/26 02:15:43;;;;;;;36.60;18.97;;;;;;;;;;5110929;28;20314;-66
2021/08/26 02:18:08;;;;;;;33.70;17.83;;;;;;;;;;5112027;28;20785;-65
2021/08/26 02:20:34;;;;;;;30.70;18.65;;;;;;;;;;5125405;27;20265;-66
2021/08/26 02:22:59;;;;;;;31.52;16.88;;;;;;;;;;5131660;27;20027;-65
2021/08/26 02:25:24;;;;;;;30.60;18.27;;;;;;;;;;5132353;27;20376;-67
2021/08/26 02:27:49;;;;;;;27.98;16.08;;;;;;;;;;5131799;27;20288;-65
2021/08/26 02:30:14;;;;;;;32.77;17.57;;;;;;;;;;5120734;27;20392;-67
2021/08/26 02:32:39;;;;;;;29.63;17.40;;;;;;;;;;5111076;28;20347;-65
2021/08/26 02:35:05;;;;;;;22.03;13.13;;;;;;;;;;5111614;28;20309;-65
2021/08/26 02:37:31;;;;;;;12.40;6.00;;;;;;;;;;5111426;28;20607;-65
2021/08/26 02:39:56;;;;;;;9.52;4.97;;;;;;;;;;5118766;27;20030;-65
2021/08/26 02:42:21;;;;;;;10.77;4.63;;;;;;;;;;5113139;27;20037;-65
2021/08/26 02:44:46;;;;;;;15.90;4.40;;;;;;;;;;5112430;27;20273;-65
2021/08/26 02:47:12;;;;;;;15.60;3.53;;;;;;;;;;5111300;28;20019;-66
2021/08/26 02:49:37;;;;;;;10.10;3.37;;;;;;;;;;5111427;28;20027;-64
2021/08/26 02:52:03;;;;;;;9.25;3.00;;;;;;;;;;5110457;28;20669;-67
2021/08/26 02:54:28;;;;;;;14.02;3.85;;;;;;;;;;5126036;27;20493;-66
2021/08/26 02:56:53;;;;;;;15.43;3.67;;;;;;;;;;5131481;27;20068;-65
2021/08/26 02:59:18;;;;;;;14.10;3.37;;;;;;;;;;5129020;27;20576;-65
2021/08/26 03:01:44;;;;;;;13.07;3.40;;;;;;;;;;5111309;27;20265;-62
2021/08/26 03:04:09;;;;;;;13.67;3.03;;;;;;;;;;5113686;27;20261;-62
2021/08/26 03:06:34;;;;;;;13.53;2.97;;;;;;;;;;5119878;27;20257;-64
2021/08/26 03:08:59;;;;;;;11.17;3.63;;;;;;;;;;5131263;27;20329;-62
2021/08/26 03:11:24;;;;;;;8.90;3.20;;;;;;;;;;5128696;27;20647;-64
2021/08/26 03:13:49;;;;;;;17.57;4.17;;;;;;;;;;5131071;27;20273;-62
2021/08/26 03:16:15;;;;;;;7.07;2.67;;;;;;;;;;5131259;27;20252;-63
2021/08/26 03:18:40;;;;;;;15.43;4.47;;;;;;;;;;5131395;28;20295;-63
2021/08/26 03:21:05;;;;;;;18.55;3.67;;;;;;;;;;5114984;27;20265;-63
2021/08/26 03:23:30;;;;;;;12.80;3.00;;;;;;;;;;5110862;28;20020;-62
2021/08/26 03:25:55;;;;;;;11.80;4.50;;;;;;;;;;5110596;28;20027;-63
2021/08/26 03:28:21;;;;;;;16.73;3.27;;;;;;;;;;5114115;28;20302;-62
2021/08/26 03:30:46;;;;;;;8.80;2.65;;;;;;;;;;5127864;27;20595;-63
2021/08/26 03:33:12;;;;;;;14.82;3.80;;;;;;;;;;5134983;27;20020;-63
2021/08/26 03:35:37;;;;;;;12.50;3.38;;;;;;;;;;5135139;27;20418;-63
2021/08/26 03:38:02;;;;;;;17.93;2.73;;;;;;;;;;5135153;27;20419;-63
2021/08/26 03:40:27;;;;;;;10.90;2.75;;;;;;;;;;5124909;27;20355;-63
2021/08/26 03:42:53;;;;;;;13.40;4.00;;;;;;;;;;5114597;28;20099;-64
2021/08/26 03:45:18;;;;;;;15.98;4.10;;;;;;;;;;5114686;28;20020;-64
2021/08/26 03:47:43;;;;;;;17.33;4.53;;;;;;;;;;5114993;27;20023;-63
2021/08/26 03:50:08;;;;;;;14.20;4.23;;;;;;;;;;5121434;27;20811;-63
2021/08/26 03:52:33;;;;;;;15.38;3.95;;;;;;;;;;5134938;27;20268;-64
2021/08/26 03:54:59;;;;;;;14.47;4.10;;;;;;;;;;5134868;27;20468;-63
2021/08/26 03:57:24;;;;;;;16.27;3.83;;;;;;;;;;5135145;27;20252;-64
2021/08/26 03:59:49;;;;;;;10.93;3.72;;;;;;;;;;5130850;27;20260;-63
2021/08/26 04:02:14;;;;;;;12.00;4.03;;;;;;;;;;5114501;28;20020;-63
2021/08/26 04:04:39;;;;;;;14.23;4.32;;;;;;;;;;5114533;28;20016;-63
2021/08/26 04:07:05;;;;;;;12.57;5.40;;;;;;;;;;5113978;28;20059;-63
2021/08/26 04:09:30;;;;;;;11.17;4.27;;;;;;;;;;5115166;27;20114;-62
2021/08/26 04:11:55;;;;;;;15.93;4.32;;;;;;;;;;5133696;27;20244;-63
2021/08/26 04:14:20;;;;;;;14.27;3.95;;;;;;;;;;5114329;28;20115;-62
2021/08/26 04:16:45;;;;;;;18.33;5.47;;;;;;;;;;5114219;28;20025;-63
2021/08/26 04:19:11;;;;;;;19.60;5.53;;;;;;;;;;5113677;28;20249;-63
2021/08/26 04:21:36;;;;;;;13.73;4.97;;;;;;;;;;5115448;27;20024;-63
2021/08/26 04:24:01;;;;;;;18.77;5.88;;;;;;;;;;5113816;27;20453;-63
2021/08/26 04:26:26;;;;;;;22.50;6.68;;;;;;;;;;5113835;28;20027;-63
2021/08/26 04:28:52;;;;;;;16.33;5.57;;;;;;;;;;5113884;28;20378;-64
2021/08/26 04:31:17;;;;;;;22.10;5.17;;;;;;;;;;5129879;27;20023;-64
2021/08/26 04:33:42;;;;;;;20.70;5.28;;;;;;;;;;5133851;27;20372;-64
2021/08/26 04:36:07;;;;;;;27.00;5.83;;;;;;;;;;5134099;27;20027;-63
2021/08/26 04:38:32;;;;;;;17.75;5.60;;;;;;;;;;5133210;27;20292;-62
2021/08/26 04:40:58;;;;;;;12.45;4.47;;;;;;;;;;5121016;27;20106;-64
2021/08/26 04:43:23;;;;;;;20.48;5.68;;;;;;;;;;5113782;28;20393;-63
2021/08/26 04:45:48;;;;;;;28.50;6.22;;;;;;;;;;5114536;27;20443;-65
2021/08/26 04:48:14;;;;;;;19.23;6.20;;;;;;;;;;5113890;27;20111;-66
2021/08/26 04:50:39;;;;;;;18.20;6.57;;;;;;;;;;5120480;27;20087;-65
2021/08/26 04:53:04;;;;;;;20.17;4.50;;;;;;;;;;5112701;28;20285;-65
2021/08/26 04:55:29;;;;;;;19.58;4.78;;;;;;;;;;5113413;28;20257;-65
2021/08/26 04:57:54;;;;;;;16.67;4.95;;;;;;;;;;5113460;27;20105;-65
2021/08/26 05:00:20;;;;;;;13.45;5.03;;;;;;;;;;5119555;27;20015;-66
2021/08/26 05:02:45;;;;;;;11.27;3.85;;;;;;;;;;5133600;27;20052;-65
2021/08/26 05:05:10;;;;;;;17.90;4.73;;;;;;;;;;5133391;27;20058;-66
2021/08/26 05:07:35;;;;;;;19.52;4.30;;;;;;;;;;5133510;27;20260;-65
2021/08/26 05:10:01;;;;;;;22.42;5.20;;;;;;;;;;5129235;27;20055;-66
2021/08/26 05:12:26;;;;;;;14.43;3.38;;;;;;;;;;5112905;27;20034;-65
2021/08/26 05:14:51;;;;;;;12.63;4.47;;;;;;;;;;5112910;28;20031;-66
2021/08/26 05:17:17;;;;;;;21.45;4.45;;;;;;;;;;5112820;28;20289;-65
2021/08/26 05:19:43;;;;;;;18.02;4.25;;;;;;;;;;5113384;27;20039;-67
2021/08/26 05:22:08;;;;;;;12.38;4.22;;;;;;;;;;5132623;27;20510;-68
2021/08/26 05:24:33;;;;;;;10.53;3.53;;;;;;;;;;5133315;27;20084;-67
2021/08/26 05:26:58;;;;;;;17.25;3.95;;;;;;;;;;5132999;27;20248;-67
2021/08/26 05:29:23;;;;;;;13.70;3.42;;;;;;;;;;5133023;27;20054;-66
2021/08/26 05:31:49;;;;;;;15.98;3.45;;;;;;;;;;5114342;27;20546;-67
2021/08/26 05:34:14;;;;;;;15.55;3.78;;;;;;;;;;5112260;27;20031;-66
2021/08/26 05:36:39;;;;;;;16.83;3.63;;;;;;;;;;5112370;28;20163;-67
2021/08/26 05:39:04;;;;;;;19.90;3.78;;;;;;;;;;5111816;28;20055;-66
2021/08/26 05:41:30;;;;;;;10.43;3.38;;;;;;;;;;5127299;27;20534;-67
2021/08/26 05:43:55;;;;;;;17.42;4.03;;;;;;;;;;5128028;27;20027;-67
2021/08/26 05:46:20;;;;;;;16.80;3.53;;;;;;;;;;5132772;27;20048;-67
2021/08/26 05:48:45;;;;;;;17.80;3.90;;;;;;;;;;5141291;27;20255;-67
2021/08/26 05:51:10;;;;;;;17.35;3.25;;;;;;;;;;5129305;27;20039;-67
2021/08/26 05:53:36;;;;;;;8.10;3.35;;;;;;;;;;5119008;27;20023;-66
2021/08/26 05:56:01;;;;;;;14.70;3.60;;;;;;;;;;5108263;28;20015;-67
2021/08/26 05:58:26;;;;;;;10.02;3.00;;;;;;;;;;5125062;27;20042;-65
2021/08/26 06:00:51;;;;;;;10.27;3.08;;;;;;;;;;5123395;27;20015;-67
2021/08/26 06:03:16;;;;;;;12.80;3.30;;;;;;;;;;5112130;28;20042;-66
2021/08/26 06:05:42;;;;;;;20.60;3.88;;;;;;;;;;5112328;27;20265;-67
2021/08/26 06:08:07;;;;;;;9.88;3.17;;;;;;;;;;5140676;22;20102;-67
2021/08/26 06:10:33;;;;;;;17.08;3.95;;;;;;;;;;5081331;28;20073;-68
2021/08/26 06:12:58;;;;;;;18.30;3.65;;;;;;;;;;5070911;28;20107;-67
2021/08/26 06:15:23;;;;;;;13.30;3.37;;;;;;;;;;5071097;28;20393;-68
2021/08/26 06:17:48;;;;;;;19.67;4.05;;;;;;;;;;5081313;28;20268;-68
2021/08/26 06:20:14;;;;;;;18.08;3.45;;;;;;;;;;5106776;28;20012;-68
2021/08/26 06:22:40;;;;;;;10.32;3.95;;;;;;;;;;5105610;28;20021;-68
2021/08/26 06:25:06;;;;;;;11.88;3.80;;;;;;;;;;5097243;28;20063;-69
2021/08/26 06:27:31;;;;;;;16.77;3.75;;;;;;;;;;5103609;28;20051;-69
2021/08/26 06:29:57;;;;;;;14.02;4.57;;;;;;;;;;5110452;28;20519;-69
2021/08/26 06:32:22;;;;;;;15.57;3.83;;;;;;;;;;5105495;28;20103;-69
2021/08/26 06:34:47;;;;;;;20.03;3.97;;;;;;;;;;5090845;28;20262;-69
2021/08/26 06:37:12;;;;;;;16.75;3.75;;;;;;;;;;5092353;28;20327;-69
2021/08/26 06:39:38;;;;;;;12.32;3.55;;;;;;;;;;5105216;28;20102;-69
2021/08/26 06:42:03;;;;;;;17.15;3.25;;;;;;;;;;5109506;28;20381;-69
2021/08/26 06:44:28;;;;;;;18.17;3.13;;;;;;;;;;5111114;28;20094;-69
2021/08/26 06:46:53;;;;;;;13.68;2.97;;;;;;;;;;5111216;28;20055;-69
2021/08/26 06:49:18;;;;;;;11.73;4.13;;;;;;;;;;5106057;28;20088;-69
2021/08/26 06:51:44;;;;;;;8.03;2.57;;;;;;;;;;5096500;28;20281;-69
2021/08/26 06:54:09;;;;;;;17.48;2.60;;;;;;;;;;5090580;28;20278;-69
2021/08/26 06:56:34;;;;;;;15.90;3.63;;;;;;;;;;5090513;28;20016;-69
2021/08/26 06:58:59;;;;;;;11.40;3.40;;;;;;;;;;5096028;28;20262;-69
2021/08/26 07:01:24;;;;;;;16.45;4.22;;;;;;;;;;5099855;28;20258;-69
2021/08/26 07:03:52;;;;;;;12.90;2.97;;;;;;;;;;5090365;28;20363;-69
2021/08/26 07:06:18;;;;;;;21.45;3.78;;;;;;;;;;5090461;28;20246;-69
2021/08/26 07:08:43;;;;;;;8.57;2.25;;;;;;;;;;5090444;28;20446;-69
2021/08/26 07:11:08;;;;;;;13.60;3.17;;;;;;;;;;5092718;28;20077;-69
2021/08/26 07:13:34;;;;;;;13.30;2.47;;;;;;;;;;5090059;28;20450;-69
2021/08/26 07:15:59;;;;;;;11.37;3.13;;;;;;;;;;5098635;28;20019;-69
2021/08/26 07:18:24;;;;;;;11.15;2.50;;;;;;;;;;5110703;28;20254;-69
2021/08/26 07:20:50;;;;;;;13.75;2.63;;;;;;;;;;5102272;28;20095;-69
2021/08/26 07:23:15;;;;;;;13.80;2.85;;;;;;;;;;5095301;28;20026;-69
2021/08/26 07:25:40;;;;;;;8.67;2.23;;;;;;;;;;5101446;28;20035;-70
2021/08/26 07:28:06;;;;;;;12.15;2.03;;;;;;;;;;5106604;28;20304;-69
2021/08/26 07:30:32;;;;;;;12.55;2.53;;;;;;;;;;5108134;28;20478;-69
2021/08/26 07:32:57;;;;;;;14.85;2.03;;;;;;;;;;5090172;28;20028;-69
2021/08/26 07:35:22;;;;;;;10.97;1.87;;;;;;;;;;5090486;28;20478;-70
2021/08/26 07:37:47;;;;;;;7.50;2.20;;;;;;;;;;5090300;28;20346;-70
2021/08/26 07:40:13;;;;;;;14.38;3.08;;;;;;;;;;5094592;28;20262;-70
2021/08/26 07:42:39;;;;;;;11.98;3.03;;;;;;;;;;5093807;28;20057;-70
2021/08/26 07:45:05;;;;;;;15.93;2.88;;;;;;;;;;5110573;28;20047;-69
2021/08/26 07:47:30;;;;;;;14.77;3.63;;;;;;;;;;5110380;28;20609;-69
2021/08/26 07:49:56;;;;;;;13.60;3.92;;;;;;;;;;5109653;28;20123;-69
2021/08/26 07:52:21;;;;;;;14.50;3.45;;;;;;;;;;5107294;28;20019;-69
2021/08/26 07:54:46;;;;;;;12.60;3.43;;;;;;;;;;5110132;28;20016;-69
2021/08/26 07:57:12;;;;;;;16.77;3.55;;;;;;;;;;5092376;28;20258;-69
2021/08/26 07:59:37;;;;;;;17.10;4.60;;;;;;;;;;5092127;28;20019;-69
2021/08/26 08:02:02;;;;;;;14.32;3.65;;;;;;;;;;5104282;28;20095;-69
2021/08/26 08:04:27;;;;;;;15.52;3.97;;;;;;;;;;5110262;28;20108;-69
2021/08/26 08:06:52;;;;;;;19.45;4.65;;;;;;;;;;5110406;28;20019;-69
2021/08/26 08:09:18;;;;;;;14.33;3.67;;;;;;;;;;5108586;28;20047;-69
2021/08/26 08:11:43;;;;;;;19.20;4.17;;;;;;;;;;5099675;28;20822;-69
2021/08/26 08:14:08;;;;;;;14.48;4.18;;;;;;;;;;5090903;28;20282;-69
2021/08/26 08:16:33;;;;;;;27.13;5.03;;;;;;;;;;5093655;28;20077;-69
2021/08/26 08:18:59;;;;;;;15.80;4.95;;;;;;;;;;5093391;28;20024;-69
2021/08/26 08:21:24;;;;;;;21.52;5.50;;;;;;;;;;5105577;28;20012;-69
2021/08/26 08:23:49;;;;;;;21.27;4.97;;;;;;;;;;5093414;28;20381;-69
2021/08/26 08:26:14;;;;;;;15.30;4.67;;;;;;;;;;5093688;28;20282;-69
2021/08/26 08:28:39;;;;;;;14.45;5.30;;;;;;;;;;5093350;28;20258;-68
2021/08/26 08:31:05;;;;;;;20.60;5.50;;;;;;;;;;5095553;28;20377;-68
2021/08/26 08:33:31;;;;;;;18.40;4.55;;;;;;;;;;5098276;28;20019;-68
2021/08/26 08:35:56;;;;;;;24.98;5.25;;;;;;;;;;5093538;28;20031;-68
2021/08/26 08:38:21;;;;;;;10.02;3.80;;;;;;;;;;5093464;28;20488;-69
2021/08/26 08:40:47;;;;;;;24.30;5.60;;;;;;;;;;5095059;28;20145;-69
2021/08/26 08:43:12;;;;;;;20.10;4.93;;;;;;;;;;5113597;28;20253;-68
2021/08/26 08:45:37;;;;;;;21.88;5.22;;;;;;;;;;5095971;28;20367;-68
2021/08/26 08:48:06;;;;;;;24.20;5.28;;;;;;;;;;5093185;28;20485;-68
2021/08/26 08:50:31;;;;;;;19.50;4.95;;;;;;;;;;5092935;28;20035;-68
2021/08/26 08:52:57;;;;;;;26.25;6.43;;;;;;;;;;5107352;28;20028;-68
2021/08/26 08:55:22;;;;;;;14.77;4.75;;;;;;;;;;5094055;28;20012;-68
2021/08/26 08:57:47;;;;;;;15.90;5.68;;;;;;;;;;5093244;28;20055;-68
2021/08/26 09:00:14;;;;;;;18.73;4.78;;;;;;;;;;5092976;28;20061;-68
2021/08/26 09:02:39;;;;;;;22.35;5.40;;;;;;;;;;5107725;28;20023;-68
2021/08/26 09:05:05;;;;;;;16.20;4.60;;;;;;;;;;5111510;28;20450;-68
2021/08/26 09:07:31;;;;;;;24.73;6.22;;;;;;;;;;5095936;28;20115;-68
2021/08/26 09:09:56;;;;;;;28.45;5.93;;;;;;;;;;5092620;28;20032;-67
2021/08/26 09:12:39;;;;;;;23.98;5.22;;;;;;;;;;5106273;28;20093;-67
2021/08/26 09:15:07;;;;;;;25.70;5.60;;;;;;;;;;5111926;28;20012;-68
2021/08/26 09:17:33;;;;;;;26.90;6.28;;;;;;;;;;5099439;28;20092;-68
2021/08/26 09:20:00;;;;;;;23.63;6.07;;;;;;;;;;5098506;28;20055;-68
2021/08/26 09:22:26;;;;;;;26.80;8.43;;;;;;;;;;5094471;28;20773;-68
2021/08/26 09:24:54;;;;;;;19.20;6.40;;;;;;;;;;5092350;28;20051;-68
2021/08/26 09:27:31;;;;;;;36.05;8.65;;;;;;;;;;5092455;28;20778;-68
2021/08/26 09:30:05;;;;;;;22.25;5.72;;;;;;;;;;5092400;28;20397;-67
2021/08/26 09:32:57;;;;;;;17.50;5.05;;;;;;;;;;5093153;28;20047;-68
2021/08/26 09:35:25;;;;;;;13.50;4.53;;;;;;;;;;5107619;28;20042;-68
2021/08/26 09:37:53;;;;;;;12.82;4.90;;;;;;;;;;5108128;28;20028;-68
2021/08/26 09:40:20;;;;;;;19.17;4.00;;;;;;;;;;5104505;28;20019;-68
2021/08/26 09:42:56;;;;;;;19.20;5.10;;;;;;;;;;5097871;28;20032;-68
2021/08/26 09:45:26;;;;;;;20.58;3.83;;;;;;;;;;5107747;28;20405;-68
2021/08/26 09:47:57;;;;;;;11.25;3.88;;;;;;;;;;5098487;28;20092;-68
2021/08/26 09:50:34;;;;;;;21.35;4.85;;;;;;;;;;5102759;28;20382;-68
2021/08/26 09:53:00;;;;;;;12.70;4.18;;;;;;;;;;5091641;28;20020;-68
2021/08/26 09:55:25;;;;;;;12.73;3.73;;;;;;;;;;5095670;28;20064;-68
2021/08/26 09:58:10;;;;;;;10.77;4.47;;;;;;;;;;5112375;28;20296;-68
2021/08/26 10:00:35;;;;;;;13.75;4.25;;;;;;;;;;5101836;28;20266;-68
2021/08/26 10:03:00;;;;;;;18.43;4.87;;;;;;;;;;5091462;28;20038;-68
2021/08/26 10:05:25;;;;;;;14.27;4.23;;;;;;;;;;5094460;28;20338;-68
2021/08/26 10:07:52;;;;;;;12.13;4.30;;;;;;;;;;5111961;28;20344;-68
2021/08/26 10:10:17;;;;;;;13.88;3.97;;;;;;;;;;5105534;28;20632;-68
2021/08/26 10:12:43;;;;;;;14.63;4.00;;;;;;;;;;5110943;28;20019;-68
2021/08/26 10:15:09;;;;;;;15.63;4.63;;;;;;;;;;5111534;28;20024;-68
2021/08/26 10:17:34;;;;;;;11.18;4.22;;;;;;;;;;5091490;28;20012;-68
2021/08/26 10:20:00;;;;;;;14.18;4.40;;;;;;;;;;5091531;28;20121;-68
2021/08/26 10:22:25;;;;;;;15.48;4.38;;;;;;;;;;5095270;28;20020;-68
2021/08/26 10:24:50;;;;;;;15.93;4.07;;;;;;;;;;5091457;28;20015;-68
2021/08/26 10:27:17;;;;;;;14.30;4.50;;;;;;;;;;5097692;28;20786;-68
2021/08/26 10:29:45;;;;;;;10.85;3.45;;;;;;;;;;5111292;28;20340;-67
2021/08/26 10:32:15;;;;;;;12.70;3.30;;;;;;;;;;5101912;28;20020;-68
2021/08/26 10:34:40;;;;;;;14.47;3.87;;;;;;;;;;5093773;28;20031;-68
2021/08/26 10:37:05;;;;;;;14.93;4.95;;;;;;;;;;5100128;28;20024;-68
2021/08/26 10:39:30;;;;;;;18.15;4.55;;;;;;;;;;5099050;28;20031;-67
2021/08/26 10:41:57;;;;;;;14.77;4.37;;;;;;;;;;5091281;28;20028;-68
2021/08/26 10:44:22;;;;;;;14.10;4.78;;;;;;;;;;5098696;28;20279;-68
2021/08/26 10:46:49;;;;;;;9.82;4.93;;;;;;;;;;5104328;28;20031;-68
2021/08/26 10:49:15;;;;;;;16.55;5.05;;;;;;;;;;5105515;28;20020;-68
2021/08/26 10:51:41;;;;;;;14.15;4.60;;;;;;;;;;5090902;28;20031;-68
2021/08/26 10:54:26;;;;;;;12.98;4.88;;;;;;;;;;5108529;28;20039;-68
2021/08/26 10:56:52;;;;;;;12.23;4.40;;;;;;;;;;5111168;28;20020;-68
2021/08/26 10:59:27;;;;;;;12.13;4.72;;;;;;;;;;5105708;28;20026;-68
2021/08/26 11:01:53;;;;;;;12.93;5.47;;;;;;;;;;5090495;28;20016;-68
2021/08/26 11:04:18;;;;;;;15.70;5.10;;;;;;;;;;5091112;28;20122;-68
2021/08/26 11:06:43;;;;;;;10.32;5.38;;;;;;;;;;5110902;28;20253;-68
2021/08/26 11:09:12;;;;;;;15.02;5.10;;;;;;;;;;5106843;28;20386;-68
2021/08/26 11:11:39;;;;;;;9.32;4.53;;;;;;;;;;5090476;28;20032;-68
2021/08/26 11:14:07;;;;;;;15.18;4.50;;;;;;;;;;5090444;28;20016;-68
2021/08/26 11:16:37;;;;;;;17.88;5.18;;;;;;;;;;5093158;28;20023;-68
2021/08/26 11:19:05;;;;;;;13.48;5.38;;;;;;;;;;5108364;28;20107;-68
2021/08/26 11:21:45;;;;;;;15.70;6.38;;;;;;;;;;5090576;28;20467;-68
2021/08/26 11:24:17;;;;;;;17.33;6.60;;;;;;;;;;5102732;28;20465;-68
2021/08/26 11:27:04;;;;;;;12.57;5.28;;;;;;;;;;5105824;28;20023;-69
2021/08/26 11:29:29;;;;;;;15.70;5.53;;;;;;;;;;5104353;28;20020;-69
2021/08/26 11:31:54;;;;;;;11.05;6.28;;;;;;;;;;5090395;28;20413;-69
2021/08/26 11:34:38;;;;;;;12.47;5.57;;;;;;;;;;5090144;28;20032;-69
2021/08/26 11:37:09;;;;;;;15.32;4.63;;;;;;;;;;5106920;28;20283;-69
2021/08/26 11:39:37;;;;;;;13.40;5.72;;;;;;;;;;5103645;28;20035;-69
2021/08/26 11:42:03;;;;;;;14.40;3.88;;;;;;;;;;5090161;28;20044;-68
2021/08/26 11:44:31;;;;;;;16.85;3.30;;;;;;;;;;5090162;28;20054;-68
2021/08/26 11:46:56;;;;;;;7.38;2.40;;;;;;;;;;5104834;28;20030;-68
2021/08/26 11:49:31;;;;;;;13.40;2.85;;;;;;;;;;5109046;28;20020;-68
2021/08/26 11:52:02;;;;;;;11.15;2.28;;;;;;;;;;5094217;28;20069;-68
2021/08/26 11:54:27;;;;;;;11.23;2.60;;;;;;;;;;5100083;28;20041;-68
2021/08/26 11:56:54;;;;;;;10.20;2.60;;;;;;;;;;5095447;28;20053;-68
2021/08/26 11:59:23;;;;;;;12.63;3.40;;;;;;;;;;5097468;28;20276;-68
2021/08/26 12:01:48;;;;;;;13.27;4.28;;;;;;;;;;5114447;28;20051;-69
2021/08/26 12:04:13;;;;;;;13.57;4.30;;;;;;;;;;5112744;28;20065;-68
2021/08/26 12:06:38;;;;;;;13.73;3.10;;;;;;;;;;5114417;28;20683;-68
2021/08/26 12:09:04;;;;;;;15.27;3.27;;;;;;;;;;5144944;22;20368;-65
2021/08/26 12:11:29;;;;;;;16.27;4.13;;;;;;;;;;5127411;27;20592;-65
2021/08/26 12:13:58;;;;;;;11.85;4.47;;;;;;;;;;5123453;27;20020;-65
2021/08/26 12:16:25;;;;;;;12.43;5.30;;;;;;;;;;5134691;27;20138;-64
2021/08/26 12:18:50;;;;;;;14.68;4.43;;;;;;;;;;5129656;27;20033;-65
2021/08/26 12:21:15;;;;;;;13.73;4.97;;;;;;;;;;5113638;28;20094;-64
2021/08/26 12:23:46;;;;;;;18.27;4.43;;;;;;;;;;5113605;28;20257;-65
2021/08/26 12:26:12;;;;;;;13.48;5.15;;;;;;;;;;5113951;28;20043;-65
2021/08/26 12:28:42;;;;;;;13.88;4.15;;;;;;;;;;5113806;28;20038;-65
2021/08/26 12:31:08;;;;;;;17.67;5.17;;;;;;;;;;5114174;28;20499;-65
2021/08/26 12:33:33;;;;;;;17.90;4.03;;;;;;;;;;5113642;28;20368;-65
2021/08/26 12:35:58;;;;;;;12.38;3.67;;;;;;;;;;5114085;28;20019;-64
2021/08/26 12:38:30;;;;;;;17.23;3.70;;;;;;;;;;5113561;28;20538;-65
2021/08/26 12:40:57;;;;;;;9.50;3.42;;;;;;;;;;5113708;28;20031;-65
2021/08/26 12:43:23;;;;;;;13.43;3.53;;;;;;;;;;5095992;28;20020;-65
2021/08/26 12:45:49;;;;;;;9.68;3.10;;;;;;;;;;5101464;28;20584;-64
2021/08/26 12:48:20;;;;;;;14.68;3.78;;;;;;;;;;5112981;28;20031;-64
2021/08/26 12:50:45;;;;;;;12.23;3.05;;;;;;;;;;5113465;28;20016;-66
2021/08/26 12:53:18;;;;;;;16.35;3.75;;;;;;;;;;5113009;28;20027;-65
2021/08/26 12:56:03;;;;;;;15.38;3.42;;;;;;;;;;5113577;28;20020;-64
2021/08/26 12:58:28;;;;;;;10.00;3.38;;;;;;;;;;5103332;28;20024;-65
2021/08/26 13:00:55;;;;;;;11.45;3.20;;;;;;;;;;5112549;28;20038;-65
2021/08/26 13:03:20;;;;;;;13.43;3.53;;;;;;;;;;5112938;28;20469;-65
2021/08/26 13:05:47;;;;;;;13.90;3.88;;;;;;;;;;5113108;28;20026;-66
2021/08/26 13:08:12;;;;;;;19.77;4.07;;;;;;;;;;5112933;28;20024;-66
2021/08/26 13:10:37;;;;;;;12.25;3.38;;;;;;;;;;5113126;28;20031;-64
2021/08/26 13:13:16;;;;;;;19.65;3.67;;;;;;;;;;5112096;28;20027;-64
2021/08/26 13:15:42;;;;;;;14.27;3.42;;;;;;;;;;5112978;28;20015;-65
2021/08/26 13:18:08;;;;;;;16.05;3.42;;;;;;;;;;5112918;28;20102;-65
2021/08/26 13:20:37;;;;;;;16.17;4.05;;;;;;;;;;5112923;28;20019;-66
2021/08/26 13:23:06;;;;;;;6.75;2.45;;;;;;;;;;5112661;28;20023;-65
2021/08/26 13:25:31;;;;;;;16.30;3.10;;;;;;;;;;5113097;28;20027;-64
2021/08/26 13:27:56;;;;;;;14.83;3.07;;;;;;;;;;5112629;28;20034;-65
2021/08/26 13:30:22;;;;;;;9.05;2.75;;;;;;;;;;5112587;28;20257;-64
2021/08/26 13:32:47;;;;;;;12.45;2.67;;;;;;;;;;5112327;28;20038;-65
2021/08/26 13:35:12;;;;;;;11.93;3.07;;;;;;;;;;5112660;28;20030;-64
2021/08/26 13:37:39;;;;;;;14.35;4.13;;;;;;;;;;5112730;28;20739;-65
2021/08/26 13:40:05;;;;;;;11.15;3.15;;;;;;;;;;5112855;28;20048;-65
2021/08/26 13:42:30;;;;;;;10.18;2.58;;;;;;;;;;5112350;28;20074;-65
2021/08/26 13:44:55;;;;;;;9.00;2.53;;;;;;;;;;5112689;28;20057;-65
2021/08/26 13:47:20;;;;;;;11.50;3.17;;;;;;;;;;5093539;28;21094;-66
2021/08/26 13:49:45;;;;;;;8.87;2.47;;;;;;;;;;5112381;28;20254;-65
2021/08/26 13:52:10;;;;;;;11.80;2.97;;;;;;;;;;5111930;28;20714;-65
2021/08/26 13:54:36;;;;;;;8.40;2.87;;;;;;;;;;5112281;28;20024;-65
2021/08/26 13:57:01;;;;;;;11.40;2.63;;;;;;;;;;5112242;28;20306;-65
2021/08/26 13:59:26;;;;;;;12.43;2.95;;;;;;;;;;5111914;28;20032;-66
2021/08/26 14:01:51;;;;;;;12.83;3.03;;;;;;;;;;5110540;28;20422;-66
2021/08/26 14:04:16;;;;;;;13.10;3.87;;;;;;;;;;5111504;28;20280;-67
2021/08/26 14:06:42;;;;;;;12.53;2.70;;;;;;;;;;5111873;28;20250;-66
2021/08/26 14:09:07;;;;;;;11.87;2.17;;;;;;;;;;5104580;28;20358;-67
2021/08/26 14:11:32;;;;;;;13.67;2.77;;;;;;;;;;5090142;28;20854;-66
2021/08/26 14:13:57;;;;;;;12.10;2.87;;;;;;;;;;5091062;28;20270;-67
2021/08/26 14:16:23;;;;;;;11.45;2.25;;;;;;;;;;5091319;28;20266;-65
2021/08/26 14:18:48;;;;;;;10.55;2.70;;;;;;;;;;5091615;28;20027;-66
2021/08/26 14:21:13;;;;;;;12.65;2.45;;;;;;;;;;5091021;28;20012;-66
2021/08/26 14:23:39;;;;;;;10.30;3.08;;;;;;;;;;5090796;28;20103;-66
2021/08/26 14:26:05;;;;;;;7.57;2.15;;;;;;;;;;5091358;28;20066;-65
2021/08/26 14:28:30;;;;;;;9.18;2.22;;;;;;;;;;5091437;28;20365;-66